Etusivu
METAR-TAF:

METAR-TAF

Lentoasemat :

El-Tor, Egypti

Leveyspiiri: 28-14N, Pituuspiiri: 032-37E, korkeus merenpinnasta: 21 m

Tämänhetkinen sää

Tämä raportti tehtiin 1 tunti ja 33 minuuttia sitten, kello 09.00 UTC
Tuuli 22 kn lännestä/luoteesta
Lämpötila 21°C
Kosteus 43%
Ilmanpaine 1015 hPa
Näkyvyys: 5000 m
hiekkaa

METAR: HETR 290900Z 29022KT 5000 SA NSC 21/08 Q1015

Aika: 12:33 (10:33 UTC)

Sääennuste

Tämä raportti tehtiin 5 tuntia ja 33 minuuttia sitten, kello 05.00 UTC
Ennuste voimassa 29. päivästä klo 06 UTC - 01. päivään klo 12 UTC
Tuuli 15 kn luoteesta puuskistuen 25 kn:hen
Näkyvyys: 6000 m

TAF: HETR 290500Z 2906/0112 31015G25KT 6000 NSC

Säähavainnot ja -ennusteet yli 4000 lentoasemalta (METAR- ja TAF-raportit).

Käytössä olevat sääasemat on merkitty karttaan keltaisilla ja punaisilla pisteillä.

Aseta hiiri pisteen päälle nähdäksesi sääaseman nimen.

Klikkaa sitten nähdäksesi säähavainnot ja -ennusteet.

Kartan vaihtaminen: klikkaa mustalla rastilla varustettuja vihreitä pisteitä, niin voit zoomata sisään; viivalla varustettua vihreää pistettä, niin voit zoomata ulos tai vihreitä nuolia, niin pääset viereisille kartoille.


METAR-TAF: